Terminal Aerodrome Forecast
Issued by NWS

Home | Current Version | Previous Version | Text Only | Print | Product List | Glossary On
Versions: 1 2 3 4 5 6 7 8 9 10 11 12 13 14 15 16 17 18
000
FTUS43 KMQT 260537
TAFSAW
TAF
KSAW 260537Z 2606/2706 23004KT P6SM BKN045
     FM261200 22007KT P6SM BKN035
     FM261400 22009KT P6SM -SHSN BKN035
     FM261700 22010KT 5SM -SHSN BKN030
     FM262100 24009KT 1 1/2SM -SHSN BKN025
     FM262300 28009KT 2SM -SHSN BKN025
     FM270100 29007KT P6SM BKN035=

USA.gov is the U.S. government's official web portal to all federal, state and local government web resources and services.